createdAt,value
2022-08-11T00:04:54.706Z,2.95
2022-08-11T00:09:56.541Z,2.63
2022-08-11T00:14:59.395Z,2.83
2022-08-11T00:20:14.530Z,2.60
2022-08-11T00:25:19.386Z,2.58
2022-08-11T00:30:21.049Z,2.72
2022-08-11T00:35:54.979Z,2.50
2022-08-11T00:40:58.001Z,2.50
2022-08-11T00:46:11.223Z,2.60
2022-08-11T00:52:04.327Z,2.70
2022-08-11T01:02:11.084Z,3.13
2022-08-11T01:07:12.516Z,2.40
2022-08-11T01:12:20.182Z,2.58
2022-08-11T01:17:37.023Z,2.50
2022-08-11T01:23:07.383Z,2.88
2022-08-11T01:28:21.221Z,2.67
2022-08-11T01:33:41.553Z,2.60
2022-08-11T01:39:05.522Z,2.13
2022-08-11T01:44:28.753Z,2.75
2022-08-11T01:50:08.403Z,2.53
2022-08-11T01:55:09.383Z,2.50
2022-08-11T02:00:19.605Z,2.70
2022-08-11T02:05:24.115Z,2.60
2022-08-11T02:10:50.660Z,2.60
2022-08-11T02:15:56.877Z,2.80
2022-08-11T02:21:21.178Z,2.67
2022-08-11T02:26:24.481Z,2.72
2022-08-11T02:32:11.025Z,2.60
2022-08-11T02:42:32.799Z,2.72
2022-08-11T02:48:14.795Z,2.95
2022-08-11T02:53:22.396Z,3.05
2022-08-11T02:58:42.635Z,3.10
2022-08-11T03:03:44.029Z,3.17
2022-08-11T03:08:52.643Z,3.15
2022-08-11T03:14:25.911Z,3.60
2022-08-11T03:19:44.949Z,3.85
2022-08-11T03:24:46.560Z,4.00
2022-08-11T03:30:01.595Z,3.88
2022-08-11T03:35:03.540Z,3.60
2022-08-11T03:40:05.098Z,3.60
2022-08-11T03:45:06.886Z,4.28
2022-08-11T03:50:11.293Z,4.07
2022-08-11T03:55:15.727Z,4.28
2022-08-11T04:00:49.374Z,4.45
2022-08-11T04:05:51.170Z,4.07
2022-08-11T04:11:17.913Z,3.80
2022-08-11T04:16:34.634Z,3.40
2022-08-11T04:21:39.290Z,3.40
2022-08-11T04:26:53.249Z,3.72
2022-08-11T04:31:54.681Z,3.70
2022-08-11T04:37:17.677Z,3.55
2022-08-11T04:42:50.263Z,4.05
2022-08-11T04:48:16.596Z,3.60
2022-08-11T04:53:43.075Z,4.68
2022-08-11T04:59:21.910Z,4.55
2022-08-11T05:05:00.637Z,5.40
2022-08-11T05:10:10.962Z,4.65
2022-08-11T05:15:32.385Z,4.90
2022-08-11T05:21:09.426Z,4.30
2022-08-11T05:26:46.314Z,3.88
2022-08-11T05:32:14.457Z,3.13
2022-08-11T05:37:32.976Z,3.30
2022-08-11T05:42:56.090Z,3.38
2022-08-11T05:48:17.007Z,3.90
2022-08-11T05:53:45.859Z,3.00
2022-08-11T05:58:50.940Z,3.58
2022-08-11T06:04:12.282Z,3.35
2022-08-11T06:09:14.543Z,3.47
2022-08-11T06:14:16.268Z,3.85
2022-08-11T06:19:21.240Z,3.90
2022-08-11T06:24:23.213Z,3.90
2022-08-11T06:29:37.513Z,4.05
2022-08-11T06:34:46.712Z,4.28
2022-08-11T06:40:00.474Z,5.18
2022-08-11T06:45:08.930Z,5.30
2022-08-11T06:50:29.254Z,4.75
2022-08-11T06:55:58.015Z,4.10
2022-08-11T07:01:01.506Z,3.78
2022-08-11T07:06:08.004Z,3.60
2022-08-11T07:11:47.149Z,3.78
2022-08-11T07:16:49.848Z,3.83
2022-08-11T07:22:10.466Z,3.30
2022-08-11T07:27:35.762Z,3.38
2022-08-11T07:32:48.337Z,3.13
2022-08-11T07:38:01.372Z,3.10
2022-08-11T07:43:04.523Z,3.10
2022-08-11T07:48:25.403Z,3.38
2022-08-11T07:53:27.461Z,2.95
2022-08-11T07:58:53.285Z,3.15
2022-08-11T08:04:13.820Z,2.83
2022-08-11T08:09:35.183Z,2.63
2022-08-11T08:14:56.606Z,2.88
2022-08-11T08:19:58.109Z,2.60
2022-08-11T08:24:59.826Z,2.60
2022-08-11T08:30:21.129Z,2.45
2022-08-11T08:35:22.879Z,2.90
2022-08-11T08:40:24.501Z,2.88
2022-08-11T08:45:27.340Z,2.78
2022-08-11T08:50:50.432Z,2.75
2022-08-11T08:55:55.059Z,2.97
2022-08-11T09:00:57.135Z,2.53
2022-08-11T09:05:58.992Z,2.80
2022-08-11T09:11:20.255Z,2.53
2022-08-11T09:16:22.764Z,3.00
2022-08-11T09:21:24.442Z,2.50
2022-08-11T09:27:02.950Z,2.70
2022-08-11T09:32:07.186Z,2.35
2022-08-11T09:37:54.045Z,2.22
2022-08-11T09:43:09.529Z,2.40
2022-08-11T09:48:11.423Z,2.70
2022-08-11T09:53:36.456Z,2.30
2022-08-11T09:58:42.417Z,2.80
2022-08-11T10:08:47.171Z,2.55
2022-08-11T10:14:31.583Z,2.33
2022-08-11T10:19:31.924Z,2.80
2022-08-11T10:24:52.704Z,2.30
2022-08-11T10:30:13.278Z,2.42
2022-08-11T10:35:15.943Z,2.33
2022-08-11T10:40:21.191Z,2.10
2022-08-11T10:45:42.958Z,2.10
2022-08-11T10:51:04.685Z,2.13
2022-08-11T10:56:25.569Z,2.22
2022-08-11T11:01:32.910Z,2.10
2022-08-11T11:06:59.571Z,2.10
2022-08-11T11:12:22.549Z,2.20
2022-08-11T11:17:45.918Z,1.90
2022-08-11T11:22:52.649Z,1.95
2022-08-11T11:28:10.303Z,2.30
2022-08-11T11:33:17.605Z,1.75
2022-08-11T11:38:19.213Z,1.87
2022-08-11T11:43:20.963Z,1.88
2022-08-11T11:48:22.564Z,1.90
2022-08-11T11:53:24.369Z,1.85
2022-08-11T11:58:45.445Z,1.50
2022-08-11T12:03:49.346Z,2.00
2022-08-11T12:08:52.326Z,2.10
2022-08-11T12:13:54.139Z,2.10
2022-08-11T12:18:57.029Z,2.08
2022-08-11T12:24:18.790Z,1.90
2022-08-11T12:29:21.303Z,2.17
2022-08-11T12:34:24.738Z,1.83
2022-08-11T12:40:16.462Z,2.20
2022-08-11T12:45:28.134Z,2.00
2022-08-11T12:50:48.222Z,2.10
2022-08-11T12:56:09.302Z,2.10
2022-08-11T13:01:29.545Z,2.17
2022-08-11T13:06:31.369Z,1.92
2022-08-11T13:11:56.801Z,1.80
2022-08-11T13:17:44.058Z,1.83
2022-08-11T13:22:47.320Z,1.90
2022-08-11T13:38:18.410Z,2.10
2022-08-11T13:43:20.507Z,2.25
2022-08-11T13:48:24.274Z,1.92
2022-08-11T13:53:26.572Z,2.25
2022-08-11T13:58:40.153Z,2.20
2022-08-11T14:04:30.333Z,2.20
2022-08-11T14:09:07.530Z,2.15
2022-08-11T14:14:10.800Z,1.98
2022-08-11T14:19:13.676Z,2.25
2022-08-11T14:24:16.426Z,2.30
2022-08-11T14:34:23.571Z,2.30
2022-08-11T14:39:27.364Z,2.30
2022-08-11T14:44:48.985Z,2.30
2022-08-11T14:49:58.287Z,1.92
2022-08-11T14:55:32.646Z,2.25
2022-08-11T15:00:34.697Z,2.25
2022-08-11T15:05:56.119Z,2.15
2022-08-11T15:10:59.590Z,2.28
2022-08-11T15:16:19.826Z,2.25
2022-08-11T15:21:39.850Z,2.20
2022-08-11T15:27:00.868Z,2.10
2022-08-11T15:32:21.176Z,2.20
2022-08-11T15:37:30.937Z,2.25
2022-08-11T15:42:52.132Z,2.17
2022-08-11T15:48:05.304Z,2.30
2022-08-11T15:53:18.858Z,2.08
2022-08-11T15:58:40.172Z,2.22
2022-08-11T16:04:13.341Z,1.80
2022-08-11T16:09:18.215Z,2.40
2022-08-11T16:14:41.065Z,2.20
2022-08-11T16:19:42.884Z,2.13
2022-08-11T16:26:30.516Z,1.90
2022-08-11T16:30:08.163Z,2.00
2022-08-11T16:35:29.442Z,1.85
2022-08-11T16:40:31.466Z,2.20
2022-08-11T16:45:52.472Z,2.00
2022-08-11T16:50:54.552Z,2.10
2022-08-11T16:55:56.802Z,2.10
2022-08-11T17:00:58.964Z,2.00
2022-08-11T17:06:19.742Z,1.90
2022-08-11T17:11:41.641Z,2.05
2022-08-11T17:16:45.671Z,2.10
2022-08-11T17:22:06.813Z,1.70
2022-08-11T17:27:08.868Z,2.20
2022-08-11T17:32:31.150Z,2.20
2022-08-11T17:37:53.610Z,2.30
2022-08-11T17:43:14.991Z,2.00
2022-08-11T17:48:25.789Z,2.00
2022-08-11T17:54:17.307Z,1.85
2022-08-11T17:59:32.227Z,2.05
2022-08-11T18:04:34.294Z,1.90
2022-08-11T18:09:54.824Z,2.10
2022-08-11T18:15:15.172Z,1.85
2022-08-11T18:20:37.821Z,2.10
2022-08-11T18:25:59.325Z,2.05
2022-08-11T18:31:21.339Z,1.98
2022-08-11T18:36:43.048Z,1.75
2022-08-11T18:42:03.646Z,2.00
2022-08-11T18:47:28.891Z,2.20
2022-08-11T18:52:51.356Z,1.90
2022-08-11T18:58:12.013Z,1.90
2022-08-11T19:03:48.609Z,1.90
2022-08-11T19:09:15.214Z,1.92
2022-08-11T19:14:35.899Z,1.90
2022-08-11T19:19:56.328Z,2.33
2022-08-11T19:25:20.925Z,2.20
2022-08-11T19:30:46.058Z,2.07
2022-08-11T19:36:06.719Z,2.00
2022-08-11T19:41:52.159Z,2.20
2022-08-11T19:47:09.679Z,2.33
2022-08-11T19:52:29.882Z,2.10
2022-08-11T19:57:51.100Z,2.10
2022-08-11T20:03:11.340Z,2.15
2022-08-11T20:08:31.944Z,2.10
2022-08-11T20:13:52.853Z,2.10
2022-08-11T20:19:13.558Z,2.00
2022-08-11T20:24:33.738Z,2.22
2022-08-11T20:29:54.282Z,2.25
2022-08-11T20:35:16.411Z,2.08
2022-08-11T20:40:37.858Z,2.10
2022-08-11T20:45:57.674Z,2.08
2022-08-11T20:51:18.427Z,2.47
2022-08-11T20:56:39.358Z,2.10
2022-08-11T21:02:01.085Z,2.10
2022-08-11T21:07:23.814Z,2.00
2022-08-11T21:12:50.591Z,2.45
2022-08-11T21:18:11.873Z,2.00
2022-08-11T21:23:51.015Z,2.40
2022-08-11T21:29:12.679Z,2.10
2022-08-11T21:34:35.000Z,2.40
2022-08-11T21:39:54.960Z,1.90
2022-08-11T21:45:15.920Z,2.10
2022-08-11T21:50:36.514Z,2.38
2022-08-11T21:55:57.393Z,2.30
2022-08-11T22:01:18.135Z,2.20
2022-08-11T22:06:39.124Z,2.28
2022-08-11T22:12:30.170Z,2.70
2022-08-11T22:17:38.935Z,2.58
2022-08-11T22:22:59.916Z,2.22
2022-08-11T22:28:21.663Z,2.55
2022-08-11T22:34:02.134Z,2.30
2022-08-11T22:39:22.633Z,2.42
2022-08-11T22:44:43.059Z,2.30
2022-08-11T22:50:03.551Z,2.30
2022-08-11T22:55:23.854Z,2.42
2022-08-11T23:00:44.175Z,2.50
2022-08-11T23:06:04.053Z,2.40
2022-08-11T23:11:25.805Z,2.47
2022-08-11T23:17:06.137Z,2.45
2022-08-11T23:22:33.764Z,2.60
2022-08-11T23:28:06.783Z,2.40
2022-08-11T23:33:28.262Z,2.60
2022-08-11T23:38:48.336Z,2.65
2022-08-11T23:44:08.327Z,2.40
2022-08-11T23:49:28.663Z,2.55
2022-08-11T23:54:49.010Z,2.22
